Baskett, Kentucky
Current Conditions -  °F | °C
As of 9:54 PM on Saturday 22 Nov 2014 (Local Time) from KEVV Reporting Station
Overcast Overcast  
Wind Chill: 57°   Ceiling: 11000
Heat Index: 57°   Visibility: 10mi
Dew Point: 35°   Wind: 7mph
Humidity: 44%   Direction: 180°S
Pressure: 30.02"   Gusts: NA
Location:  37.87°N, 87.46°W
Report Text: KEVV 230354Z 18006KT 10SM FEW050 OVC110 14/02 A3002 RMK AO2 SLP164 T01390017
Loading
Personal Weather Stations






























Interactive Weather Map New forecast layout! Learn more

10-Day Weather Forecast

Advertisements
Track Severe Weather on mobile